Candor, New York
Current Conditions -  °F | °C
As of 12:14 AM on Thursday 27 Nov 2014 (Local Time) from KBGM Reporting Station
Light Snow Light Snow  
Wind Chill: 31°   Ceiling: 1100
Heat Index: 37°   Visibility: 5mi
Dew Point: 25°   Wind: 8mph
Humidity: 62%   Direction: 330°NNW
Pressure: 29.89"   Gusts: NA
Location:  42.23°N, 76.34°W
Report Text: KBGM 270514Z 33007KT 5SM -SN OVC011 03/M04 A2989 RMK AO2 P0000 T00281039 $
Loading
Personal Weather Stations






























Interactive Weather Map New forecast layout! Learn more

10-Day Weather Forecast

Advertisements
Track Severe Weather on mobile